createdAt,value
2023-01-28T00:04:07.134Z,8.23
2023-01-28T00:09:08.829Z,7.40
2023-01-28T00:14:12.214Z,9.40
2023-01-28T00:19:13.806Z,5.60
2023-01-28T00:24:15.760Z,7.60
2023-01-28T00:29:17.491Z,5.70
2023-01-28T00:34:19.716Z,7.47
2023-01-28T00:39:21.319Z,6.27
2023-01-28T00:44:22.954Z,5.77
2023-01-28T00:49:24.559Z,6.40
2023-01-28T00:54:26.244Z,7.07
2023-01-28T00:59:27.949Z,6.80
2023-01-28T01:04:35.340Z,7.37
2023-01-28T01:09:38.064Z,6.63
2023-01-28T01:14:39.609Z,6.97
2023-01-28T01:19:42.636Z,7.03
2023-01-28T01:24:44.240Z,9.00
2023-01-28T01:29:45.813Z,10.37
2023-01-28T01:34:47.465Z,8.97
2023-01-28T01:39:49.205Z,11.00
2023-01-28T01:45:00.045Z,12.77
2023-01-28T01:50:07.957Z,9.70
2023-01-28T01:55:13.297Z,7.90
2023-01-28T02:00:16.170Z,9.23
2023-01-28T02:05:20.165Z,9.43
2023-01-28T02:10:22.918Z,9.60
2023-01-28T02:15:25.236Z,8.13
2023-01-28T02:21:00.757Z,6.67
2023-01-28T02:26:09.911Z,8.33
2023-01-28T02:31:18.583Z,8.33
2023-01-28T02:36:45.421Z,11.00
2023-01-28T02:41:53.416Z,10.70
2023-01-28T02:47:13.800Z,9.33
2023-01-28T02:52:20.392Z,7.90
2023-01-28T02:57:40.859Z,9.90
2023-01-28T03:02:44.635Z,8.03
2023-01-28T03:07:47.017Z,8.10
2023-01-28T03:13:10.369Z,6.37
2023-01-28T03:18:38.765Z,7.67
2023-01-28T03:24:20.086Z,8.43
2023-01-28T03:29:42.228Z,7.90
2023-01-28T03:35:05.813Z,8.37
2023-01-28T03:40:08.172Z,9.53
2023-01-28T03:45:10.256Z,6.50
2023-01-28T03:50:12.083Z,6.97
2023-01-28T03:55:47.866Z,6.67
2023-01-28T04:00:49.452Z,7.47
2023-01-28T04:06:06.181Z,8.60
2023-01-28T04:11:27.348Z,7.07
2023-01-28T04:16:30.774Z,9.63
2023-01-28T04:21:32.899Z,6.40
2023-01-28T04:26:36.669Z,7.20
2023-01-28T04:31:39.546Z,5.47
2023-01-28T04:37:04.168Z,6.37
2023-01-28T04:42:24.166Z,5.93
2023-01-28T04:47:40.028Z,6.37
2023-01-28T04:53:00.155Z,5.63
2023-01-28T04:58:14.135Z,5.80
2023-01-28T05:03:17.835Z,6.73
2023-01-28T05:08:19.459Z,4.63
2023-01-28T05:13:21.925Z,4.07
2023-01-28T05:18:23.780Z,4.07
2023-01-28T05:23:44.351Z,4.70
2023-01-28T05:28:45.964Z,4.03
2023-01-28T05:33:47.679Z,4.23
2023-01-28T05:38:50.258Z,5.17
2023-01-28T05:43:52.054Z,5.47
2023-01-28T05:49:13.432Z,4.77
2023-01-28T05:54:45.905Z,5.33
2023-01-28T05:59:47.486Z,5.27
2023-01-28T06:04:49.075Z,5.97
2023-01-28T06:09:52.326Z,4.60
2023-01-28T06:14:56.516Z,4.27
2023-01-28T06:20:17.478Z,6.10
2023-01-28T06:25:22.497Z,6.97
2023-01-28T06:30:24.282Z,6.73
2023-01-28T06:35:25.854Z,4.13
2023-01-28T06:40:27.449Z,4.53
2023-01-28T06:45:29.275Z,5.37
2023-01-28T06:50:30.895Z,4.87
2023-01-28T06:55:32.476Z,4.33
2023-01-28T07:00:34.383Z,4.40
2023-01-28T07:05:36.021Z,3.50
2023-01-28T07:10:37.874Z,3.90
2023-01-28T07:15:39.499Z,4.30
2023-01-28T07:20:41.085Z,4.63
2023-01-28T07:25:42.618Z,3.77
2023-01-28T07:30:44.308Z,4.13
2023-01-28T07:35:46.570Z,4.23
2023-01-28T07:40:48.370Z,4.10
2023-01-28T07:45:50.188Z,3.33
2023-01-28T07:50:51.911Z,4.27
2023-01-28T07:55:59.510Z,5.13
2023-01-28T08:01:02.137Z,4.37
2023-01-28T08:06:04.024Z,4.40
2023-01-28T08:11:10.670Z,3.07
2023-01-28T08:16:12.731Z,5.20
2023-01-28T08:21:14.409Z,3.33
2023-01-28T08:26:15.949Z,4.93
2023-01-28T08:31:17.551Z,2.97
2023-01-28T08:36:19.155Z,4.37
2023-01-28T08:41:24.095Z,3.30
2023-01-28T08:46:25.861Z,3.47
2023-01-28T08:51:27.458Z,4.13
2023-01-28T08:56:30.446Z,4.67
2023-01-28T09:01:32.156Z,6.37
2023-01-28T09:06:33.816Z,5.00
2023-01-28T09:11:35.433Z,4.83
2023-01-28T09:16:36.990Z,4.60
2023-01-28T09:21:41.367Z,5.43
2023-01-28T09:26:44.486Z,4.83
2023-01-28T09:31:46.197Z,11.47
2023-01-28T09:36:47.824Z,3.87
2023-01-28T09:42:09.866Z,4.03
2023-01-28T09:47:51.915Z,3.43
2023-01-28T09:52:57.986Z,4.97
2023-01-28T09:57:59.704Z,4.57
2023-01-28T10:03:36.698Z,3.87
2023-01-28T10:09:05.908Z,3.30
2023-01-28T10:14:19.616Z,3.37
2023-01-28T10:19:30.733Z,3.57
2023-01-28T10:24:38.296Z,3.87
2023-01-28T10:29:43.915Z,3.37
2023-01-28T10:34:45.557Z,4.03
2023-01-28T10:39:47.320Z,5.20
2023-01-28T10:44:49.759Z,4.93
2023-01-28T10:49:53.491Z,2.83
2023-01-28T10:55:02.894Z,2.40
2023-01-28T11:00:26.235Z,2.90
2023-01-28T11:05:30.408Z,3.00
2023-01-28T11:10:37.558Z,4.10
2023-01-28T11:15:46.559Z,4.03
2023-01-28T11:21:03.445Z,2.83
2023-01-28T11:26:07.613Z,3.20
2023-01-28T11:31:11.368Z,4.10
2023-01-28T11:36:21.628Z,3.90
2023-01-28T11:41:34.700Z,2.53
2023-01-28T11:47:25.703Z,4.43
2023-01-28T11:53:05.059Z,3.70
2023-01-28T11:58:18.697Z,3.17
2023-01-28T12:03:34.718Z,3.67
2023-01-28T12:09:14.804Z,4.07
2023-01-28T12:14:55.587Z,4.60
2023-01-28T12:20:06.396Z,3.60
2023-01-28T12:25:25.979Z,4.00
2023-01-28T12:31:07.921Z,2.67
2023-01-28T12:36:22.206Z,3.87
2023-01-28T12:41:33.157Z,2.57
2023-01-28T12:46:45.590Z,2.53
2023-01-28T12:51:54.206Z,3.40
2023-01-28T12:56:56.514Z,2.70
2023-01-28T13:02:04.160Z,3.93
2023-01-28T13:07:20.992Z,2.57
2023-01-28T13:12:23.102Z,3.63
2023-01-28T13:17:27.724Z,3.57
2023-01-28T13:22:35.259Z,4.00
2023-01-28T13:27:36.997Z,3.77
2023-01-28T13:32:39.807Z,3.47
2023-01-28T13:37:45.271Z,3.33
2023-01-28T13:42:58.348Z,4.80
2023-01-28T13:48:18.424Z,3.63
2023-01-28T13:53:42.957Z,4.30
2023-01-28T13:59:03.332Z,3.20
2023-01-28T14:04:23.384Z,3.17
2023-01-28T14:09:54.204Z,3.80
2023-01-28T14:15:12.394Z,6.17
2023-01-28T14:20:25.328Z,3.67
2023-01-28T14:25:52.209Z,4.47
2023-01-28T14:30:58.015Z,3.83
2023-01-28T14:35:59.708Z,4.67
2023-01-28T14:41:02.131Z,2.67
2023-01-28T14:46:17.555Z,3.23
2023-01-28T14:51:54.911Z,4.83
2023-01-28T14:57:28.751Z,3.40
2023-01-28T15:02:31.316Z,4.47
2023-01-28T15:07:32.913Z,3.27
2023-01-28T15:12:37.745Z,4.13
2023-01-28T15:17:39.405Z,5.53
2023-01-28T15:22:42.280Z,2.70
2023-01-28T15:27:43.827Z,3.27
2023-01-28T15:32:45.438Z,3.73
2023-01-28T15:42:54.966Z,3.63
2023-01-28T15:48:05.130Z,2.47
2023-01-28T15:53:14.286Z,2.37
2023-01-28T15:58:29.765Z,6.30
2023-01-28T16:03:31.416Z,4.03
2023-01-28T16:08:42.552Z,2.93
2023-01-28T16:13:44.495Z,3.10
2023-01-28T16:18:49.089Z,2.13
2023-01-28T16:24:01.415Z,2.30
2023-01-28T16:29:14.221Z,2.43
2023-01-28T16:34:15.860Z,3.07
2023-01-28T16:39:17.486Z,2.70
2023-01-28T16:44:19.043Z,2.83
2023-01-28T16:49:20.627Z,3.20
2023-01-28T16:54:22.516Z,3.70
2023-01-28T16:59:24.095Z,3.93
2023-01-28T17:04:25.823Z,2.67
2023-01-28T17:09:27.513Z,2.43
2023-01-28T17:14:29.077Z,4.00
2023-01-28T17:19:31.084Z,3.57
2023-01-28T17:24:32.708Z,3.03
2023-01-28T17:29:34.310Z,3.90
2023-01-28T17:34:35.913Z,3.63
2023-01-28T17:39:37.557Z,4.00
2023-01-28T17:44:39.168Z,4.13
2023-01-28T17:49:40.731Z,3.13
2023-01-28T17:54:42.353Z,3.37
2023-01-28T17:59:43.980Z,4.13
2023-01-28T18:04:46.614Z,3.70
2023-01-28T18:09:48.749Z,4.83
2023-01-28T18:14:50.486Z,4.30
2023-01-28T18:19:52.017Z,4.20
2023-01-28T18:24:53.634Z,5.63
2023-01-28T18:29:55.259Z,6.53
2023-01-28T18:34:56.875Z,6.77
2023-01-28T18:39:58.489Z,5.00
2023-01-28T18:45:00.145Z,5.43
2023-01-28T18:50:02.115Z,5.03
2023-01-28T18:55:04.151Z,6.83
2023-01-28T19:00:06.473Z,6.20
2023-01-28T19:05:08.348Z,8.13
2023-01-28T19:10:10.263Z,7.63
2023-01-28T19:15:12.095Z,7.93
2023-01-28T19:20:14.077Z,7.73
2023-01-28T19:25:16.479Z,8.07
2023-01-28T19:30:18.387Z,8.47
2023-01-28T19:35:21.076Z,8.23
2023-01-28T19:40:23.921Z,7.60
2023-01-28T19:45:25.561Z,8.57
2023-01-28T19:50:27.148Z,9.00
2023-01-28T19:55:28.738Z,8.43
2023-01-28T20:00:30.352Z,9.10
2023-01-28T20:05:32.203Z,7.77
2023-01-28T20:10:33.821Z,8.13
2023-01-28T20:15:39.730Z,7.90
2023-01-28T20:20:41.312Z,9.53
2023-01-28T20:25:42.842Z,7.13
2023-01-28T20:30:44.567Z,7.30
2023-01-28T20:35:46.540Z,9.40
2023-01-28T20:40:48.150Z,8.23
2023-01-28T20:45:50.273Z,8.20
2023-01-28T20:50:51.821Z,9.37
2023-01-28T20:55:58.400Z,8.30
2023-01-28T21:00:59.998Z,10.27
2023-01-28T21:06:01.688Z,7.70
2023-01-28T21:11:04.149Z,8.93
2023-01-28T21:16:06.333Z,10.10
2023-01-28T21:21:11.605Z,10.97
2023-01-28T21:26:15.309Z,10.13
2023-01-28T21:31:17.865Z,9.80
2023-01-28T21:36:20.085Z,9.70
2023-01-28T21:41:22.159Z,9.63
2023-01-28T21:46:28.244Z,10.27
2023-01-28T21:51:36.197Z,9.27
2023-01-28T21:56:38.070Z,10.40
2023-01-28T22:01:39.728Z,10.17
2023-01-28T22:06:42.353Z,10.40
2023-01-28T22:11:44.684Z,10.23
2023-01-28T22:16:46.988Z,9.10
2023-01-28T22:21:48.666Z,11.27
2023-01-28T22:26:50.901Z,9.27
2023-01-28T22:31:53.477Z,9.87
2023-01-28T22:36:55.142Z,10.03
2023-01-28T22:41:56.787Z,8.63
2023-01-28T22:46:58.338Z,8.53
2023-01-28T22:51:59.997Z,7.80
2023-01-28T22:57:01.593Z,8.93
2023-01-28T23:02:03.245Z,7.73
2023-01-28T23:07:05.385Z,8.67
2023-01-28T23:12:07.285Z,9.43
2023-01-28T23:17:29.945Z,10.17
2023-01-28T23:22:51.195Z,8.43
2023-01-28T23:27:52.803Z,7.83
2023-01-28T23:32:56.447Z,7.67
2023-01-28T23:37:58.430Z,8.63
2023-01-28T23:43:00.155Z,6.93
2023-01-28T23:48:04.218Z,7.30
2023-01-28T23:53:12.992Z,8.37
2023-01-28T23:58:14.586Z,7.30
